createdAt,value
2022-08-29T00:00:30.817Z,1.42
2022-08-29T00:03:00.182Z,1.30
2022-08-29T00:05:30.909Z,1.30
2022-08-29T00:07:59.388Z,1.40
2022-08-29T00:10:27.274Z,1.52
2022-08-29T00:12:54.697Z,1.40
2022-08-29T00:15:25.917Z,1.23
2022-08-29T00:17:53.517Z,1.25
2022-08-29T00:20:30.344Z,1.77
2022-08-29T00:23:03.690Z,1.75
2022-08-29T00:25:31.383Z,1.60
2022-08-29T00:27:59.248Z,1.80
2022-08-29T00:30:26.360Z,1.35
2022-08-29T00:32:53.493Z,1.85
2022-08-29T00:35:24.474Z,1.50
2022-08-29T00:37:52.166Z,1.80
2022-08-29T00:40:44.973Z,1.70
2022-08-29T00:43:20.872Z,1.60
2022-08-29T00:46:05.279Z,1.52
2022-08-29T00:48:34.929Z,1.80
2022-08-29T00:51:05.245Z,1.38
2022-08-29T00:53:44.157Z,1.60
2022-08-29T00:56:13.924Z,1.10
2022-08-29T00:58:46.211Z,1.20
2022-08-29T01:01:14.209Z,1.38
2022-08-29T01:03:42.930Z,1.25
2022-08-29T01:06:11.355Z,1.20
2022-08-29T01:08:38.169Z,1.45
2022-08-29T01:11:24.996Z,1.20
2022-08-29T01:13:54.756Z,1.65
2022-08-29T01:16:24.225Z,1.27
2022-08-29T01:18:56.880Z,1.20
2022-08-29T01:21:47.498Z,1.48
2022-08-29T01:24:20.095Z,1.50
2022-08-29T01:26:47.960Z,1.50
2022-08-29T01:29:16.192Z,1.60
2022-08-29T01:31:56.935Z,1.35
2022-08-29T01:34:27.430Z,1.98
2022-08-29T01:37:03.849Z,1.38
2022-08-29T01:39:33.945Z,1.70
2022-08-29T01:42:04.247Z,1.80
2022-08-29T01:44:31.529Z,1.50
2022-08-29T01:47:03.117Z,1.40
2022-08-29T01:49:33.151Z,1.65
2022-08-29T01:52:02.078Z,1.80
2022-08-29T01:54:30.108Z,1.65
2022-08-29T01:56:56.955Z,1.60
2022-08-29T01:59:27.206Z,1.70
2022-08-29T02:01:58.621Z,2.08
2022-08-29T02:04:25.684Z,2.22
2022-08-29T02:06:52.619Z,1.90
2022-08-29T02:09:19.437Z,1.35
2022-08-29T02:11:46.497Z,1.90
2022-08-29T02:14:19.343Z,1.73
2022-08-29T02:16:48.126Z,2.17
2022-08-29T02:19:16.604Z,1.90
2022-08-29T02:21:44.453Z,1.88
2022-08-29T02:24:25.055Z,2.08
2022-08-29T02:26:54.662Z,1.88
2022-08-29T02:29:21.672Z,1.65
2022-08-29T02:31:48.792Z,1.83
2022-08-29T02:34:16.411Z,1.58
2022-08-29T02:36:44.659Z,2.00
2022-08-29T02:39:12.306Z,1.38
2022-08-29T02:41:42.037Z,2.00
2022-08-29T02:44:11.365Z,1.63
2022-08-29T02:46:38.218Z,2.20
2022-08-29T02:49:05.808Z,2.05
2022-08-29T02:51:34.087Z,1.77
2022-08-29T02:54:01.717Z,1.63
2022-08-29T02:56:30.006Z,2.03
2022-08-29T02:58:57.747Z,1.70
2022-08-29T03:01:27.363Z,2.45
2022-08-29T03:03:54.475Z,2.20
2022-08-29T03:06:22.308Z,1.90
2022-08-29T03:08:50.004Z,1.90
2022-08-29T03:11:17.392Z,2.13
2022-08-29T03:13:44.866Z,1.88
2022-08-29T03:16:11.977Z,2.15
2022-08-29T03:18:38.983Z,1.85
2022-08-29T03:21:05.891Z,2.10
2022-08-29T03:23:32.682Z,2.28
2022-08-29T03:25:59.568Z,1.95
2022-08-29T03:28:26.386Z,2.10
2022-08-29T03:30:53.188Z,1.90
2022-08-29T03:33:20.003Z,1.90
2022-08-29T03:35:46.772Z,1.73
2022-08-29T03:38:13.705Z,1.60
2022-08-29T03:40:42.390Z,1.70
2022-08-29T03:43:09.988Z,1.60
2022-08-29T03:45:36.832Z,1.52
2022-08-29T03:48:04.351Z,1.63
2022-08-29T03:50:31.363Z,1.80
2022-08-29T03:52:58.357Z,1.60
2022-08-29T03:55:26.197Z,1.73
2022-08-29T03:57:55.054Z,1.50
2022-08-29T04:00:21.875Z,1.63
2022-08-29T04:02:49.385Z,2.30
2022-08-29T04:05:18.038Z,1.90
2022-08-29T04:07:44.925Z,1.50
2022-08-29T04:10:16.319Z,1.40
2022-08-29T04:12:43.177Z,1.67
2022-08-29T04:15:11.777Z,1.50
2022-08-29T04:17:53.216Z,1.80
2022-08-29T04:20:25.050Z,1.65
2022-08-29T04:22:54.241Z,1.52
2022-08-29T04:25:23.126Z,2.17
2022-08-29T04:27:49.929Z,1.52
2022-08-29T04:30:19.731Z,1.50
2022-08-29T04:32:47.399Z,1.80
2022-08-29T04:35:15.813Z,1.80
2022-08-29T04:37:43.911Z,1.40
2022-08-29T04:40:15.467Z,1.90
2022-08-29T04:42:43.292Z,1.70
2022-08-29T04:45:12.911Z,1.98
2022-08-29T04:47:40.937Z,1.83
2022-08-29T04:50:11.759Z,2.10
2022-08-29T04:52:39.086Z,2.10
2022-08-29T04:55:07.205Z,2.00
2022-08-29T04:57:35.250Z,2.05
2022-08-29T05:00:04.794Z,2.15
2022-08-29T05:02:31.975Z,2.70
2022-08-29T05:04:58.815Z,2.40
2022-08-29T05:07:26.994Z,2.38
2022-08-29T05:10:00.971Z,2.13
2022-08-29T05:12:29.907Z,2.95
2022-08-29T05:14:57.863Z,2.72
2022-08-29T05:17:24.743Z,2.38
2022-08-29T05:19:51.895Z,2.70
2022-08-29T05:22:20.051Z,2.58
2022-08-29T05:24:48.850Z,2.33
2022-08-29T05:27:19.121Z,2.65
2022-08-29T05:29:49.013Z,2.95
2022-08-29T05:32:17.501Z,2.55
2022-08-29T05:34:45.473Z,2.88
2022-08-29T05:37:16.452Z,2.60
2022-08-29T05:39:43.285Z,2.50
2022-08-29T05:42:12.069Z,2.60
2022-08-29T05:44:39.957Z,2.72
2022-08-29T05:47:09.162Z,2.80
2022-08-29T05:49:37.906Z,2.70
2022-08-29T05:52:06.288Z,2.78
2022-08-29T05:54:36.021Z,2.90
2022-08-29T05:57:03.145Z,2.10
2022-08-29T05:59:30.344Z,2.33
2022-08-29T06:01:57.305Z,2.65
2022-08-29T06:04:24.148Z,2.80
2022-08-29T06:06:50.994Z,2.55
2022-08-29T06:09:17.829Z,3.17
2022-08-29T06:11:50.391Z,2.80
2022-08-29T06:14:17.536Z,3.00
2022-08-29T06:16:44.328Z,2.53
2022-08-29T06:19:12.000Z,2.40
2022-08-29T06:21:38.966Z,2.22
2022-08-29T06:24:07.321Z,2.75
2022-08-29T06:26:35.070Z,3.00
2022-08-29T06:29:05.639Z,2.55
2022-08-29T06:31:32.747Z,2.60
2022-08-29T06:34:02.204Z,2.60
2022-08-29T06:36:29.906Z,2.78
2022-08-29T06:38:58.499Z,2.60
2022-08-29T06:41:26.714Z,2.30
2022-08-29T06:43:56.789Z,2.92
2022-08-29T06:46:30.108Z,2.75
2022-08-29T06:48:59.407Z,2.70
2022-08-29T06:51:27.230Z,2.67
2022-08-29T06:53:54.892Z,3.58
2022-08-29T06:56:22.333Z,2.67
2022-08-29T06:58:49.201Z,3.28
2022-08-29T07:01:19.812Z,2.80
2022-08-29T07:03:47.428Z,3.30
2022-08-29T07:06:17.188Z,2.88
2022-08-29T07:08:55.732Z,3.00
2022-08-29T07:11:25.625Z,2.90
2022-08-29T07:13:52.635Z,2.45
2022-08-29T07:16:19.787Z,3.13
2022-08-29T07:18:47.399Z,2.83
2022-08-29T07:21:20.923Z,2.75
2022-08-29T07:23:49.432Z,2.90
2022-08-29T07:26:19.455Z,2.60
2022-08-29T07:28:51.250Z,2.75
2022-08-29T07:31:18.677Z,2.97
2022-08-29T07:33:45.554Z,2.63
2022-08-29T07:36:12.646Z,3.15
2022-08-29T07:38:39.583Z,3.10
2022-08-29T07:41:09.818Z,3.10
2022-08-29T07:43:37.584Z,2.53
2022-08-29T07:46:09.453Z,2.60
2022-08-29T07:48:37.003Z,3.20
2022-08-29T07:51:11.381Z,3.08
2022-08-29T07:53:39.045Z,3.22
2022-08-29T07:56:08.024Z,2.65
2022-08-29T07:58:36.233Z,2.90
2022-08-29T08:01:04.126Z,2.55
2022-08-29T08:03:32.490Z,3.15
2022-08-29T08:05:59.764Z,3.03
2022-08-29T08:08:31.098Z,2.47
2022-08-29T08:10:58.009Z,3.10
2022-08-29T08:13:24.885Z,3.35
2022-08-29T08:15:51.685Z,3.10
2022-08-29T08:18:18.702Z,2.85
2022-08-29T08:20:48.352Z,2.85
2022-08-29T08:23:17.051Z,2.90
2022-08-29T08:25:44.897Z,3.17
2022-08-29T08:28:15.854Z,2.92
2022-08-29T08:30:42.970Z,2.85
2022-08-29T08:33:10.893Z,3.85
2022-08-29T08:35:42.001Z,2.92
2022-08-29T08:38:09.304Z,3.15
2022-08-29T08:40:43.680Z,2.90
2022-08-29T08:43:26.233Z,3.00
2022-08-29T08:45:55.368Z,2.83
2022-08-29T08:48:26.029Z,2.38
2022-08-29T08:51:17.060Z,2.72
2022-08-29T08:53:47.632Z,2.95
2022-08-29T08:56:34.501Z,2.78
2022-08-29T08:59:25.303Z,2.58
2022-08-29T09:02:00.338Z,2.88
2022-08-29T09:04:37.635Z,2.50
2022-08-29T09:07:22.347Z,2.67
2022-08-29T09:10:17.052Z,2.75
2022-08-29T09:13:08.949Z,2.67
2022-08-29T09:15:45.316Z,2.55
2022-08-29T09:18:24.110Z,3.08
2022-08-29T09:20:51.258Z,3.05
2022-08-29T09:23:44.416Z,3.00
2022-08-29T09:26:15.228Z,2.83
2022-08-29T09:28:42.182Z,2.70
2022-08-29T09:31:33.706Z,2.65
2022-08-29T09:34:04.265Z,2.80
2022-08-29T09:36:52.099Z,3.42
2022-08-29T09:39:29.600Z,2.80
2022-08-29T09:42:13.855Z,3.03
2022-08-29T09:44:41.829Z,2.35
2022-08-29T09:47:13.624Z,3.05
2022-08-29T09:50:00.111Z,2.35
2022-08-29T09:52:27.410Z,2.55
2022-08-29T09:54:54.853Z,2.53
2022-08-29T09:57:26.282Z,2.47
2022-08-29T10:00:15.849Z,2.50
2022-08-29T10:02:45.485Z,2.55
2022-08-29T10:05:35.949Z,2.60
2022-08-29T10:08:06.072Z,2.80
2022-08-29T10:10:36.483Z,2.35
2022-08-29T10:13:03.240Z,3.05
2022-08-29T10:15:49.927Z,2.20
2022-08-29T10:18:36.277Z,2.70
2022-08-29T10:21:24.542Z,2.30
2022-08-29T10:24:03.914Z,3.05
2022-08-29T10:26:50.508Z,2.55
2022-08-29T10:29:45.947Z,2.47
2022-08-29T10:32:37.878Z,2.60
2022-08-29T10:35:22.770Z,2.28
2022-08-29T10:37:55.407Z,2.05
2022-08-29T10:40:45.585Z,2.25
2022-08-29T10:43:34.175Z,2.45
2022-08-29T10:46:26.089Z,2.72
2022-08-29T10:49:10.711Z,2.13
2022-08-29T10:51:43.402Z,2.30
2022-08-29T10:54:33.665Z,2.15
2022-08-29T10:57:03.536Z,2.50
2022-08-29T10:59:50.373Z,2.38
2022-08-29T11:02:32.484Z,2.50
2022-08-29T11:05:05.057Z,2.00
2022-08-29T11:07:43.769Z,2.17
2022-08-29T11:10:17.732Z,1.90
2022-08-29T11:12:47.192Z,2.42
2022-08-29T11:16:00.921Z,2.22
2022-08-29T11:18:36.917Z,1.95
2022-08-29T11:21:14.922Z,2.03
2022-08-29T11:23:46.533Z,2.03
2022-08-29T11:26:28.333Z,2.17
2022-08-29T11:29:06.044Z,2.17
2022-08-29T11:31:51.368Z,2.22
2022-08-29T11:34:59.478Z,1.80
2022-08-29T11:38:03.665Z,2.28
2022-08-29T11:41:26.419Z,2.30
2022-08-29T11:43:38.723Z,1.92
2022-08-29T11:46:08.103Z,2.05
2022-08-29T11:49:15.395Z,2.10
2022-08-29T11:51:52.574Z,1.95
2022-08-29T11:54:25.340Z,2.30
2022-08-29T11:57:01.329Z,2.20
2022-08-29T11:59:48.517Z,2.00
2022-08-29T12:02:27.609Z,2.28
2022-08-29T12:05:04.319Z,2.15
2022-08-29T12:07:53.810Z,1.85
2022-08-29T12:10:21.984Z,1.95
2022-08-29T12:12:51.131Z,2.38
2022-08-29T12:15:27.402Z,2.08
2022-08-29T12:18:18.086Z,1.80
2022-08-29T12:20:50.988Z,1.95
2022-08-29T12:23:20.898Z,1.92
2022-08-29T12:26:09.622Z,1.55
2022-08-29T12:28:47.336Z,1.70
2022-08-29T12:31:29.429Z,1.77
2022-08-29T12:34:23.340Z,1.73
2022-08-29T12:37:00.880Z,2.10
2022-08-29T12:39:53.733Z,1.63
2022-08-29T12:42:29.623Z,1.90
2022-08-29T12:45:12.021Z,1.83
2022-08-29T12:47:54.122Z,2.03
2022-08-29T12:50:44.165Z,2.13
2022-08-29T12:53:17.102Z,1.70
2022-08-29T12:55:51.646Z,1.88
2022-08-29T12:58:36.777Z,1.77
2022-08-29T13:01:06.992Z,2.10
2022-08-29T13:03:33.918Z,2.25
2022-08-29T13:06:13.209Z,1.70
2022-08-29T13:08:41.261Z,2.05
2022-08-29T13:11:10.999Z,1.73
2022-08-29T13:13:37.998Z,2.20
2022-08-29T13:16:09.139Z,2.13
2022-08-29T13:18:53.677Z,2.45
2022-08-29T13:21:26.525Z,1.77
2022-08-29T13:24:10.024Z,2.13
2022-08-29T13:27:06.309Z,1.90
2022-08-29T13:29:36.223Z,1.92
2022-08-29T13:32:09.230Z,1.77
2022-08-29T13:34:36.124Z,1.70
2022-08-29T13:37:08.340Z,2.40
2022-08-29T13:39:46.259Z,1.90
2022-08-29T13:42:22.444Z,1.75
2022-08-29T13:44:49.222Z,1.50
2022-08-29T13:47:28.832Z,1.67
2022-08-29T13:50:01.107Z,1.58
2022-08-29T13:52:31.542Z,2.15
2022-08-29T13:54:59.100Z,2.33
2022-08-29T13:57:29.129Z,1.58
2022-08-29T13:59:57.289Z,1.33
2022-08-29T14:02:25.946Z,1.80
2022-08-29T14:04:53.109Z,1.80
2022-08-29T14:07:24.219Z,1.58
2022-08-29T14:09:51.837Z,1.60
2022-08-29T14:12:19.178Z,1.60
2022-08-29T14:14:48.353Z,1.58
2022-08-29T14:17:18.680Z,1.70
2022-08-29T14:19:46.985Z,1.52
2022-08-29T14:22:14.452Z,1.95
2022-08-29T14:24:41.911Z,1.80
2022-08-29T14:27:09.681Z,2.00
2022-08-29T14:29:36.879Z,1.67
2022-08-29T14:32:04.271Z,1.52
2022-08-29T14:34:32.860Z,1.50
2022-08-29T14:37:03.161Z,1.35
2022-08-29T14:39:30.532Z,1.42
2022-08-29T14:41:57.539Z,1.63
2022-08-29T14:44:24.546Z,1.70
2022-08-29T14:46:51.887Z,1.90
2022-08-29T14:49:19.642Z,1.50
2022-08-29T14:51:46.838Z,1.55
2022-08-29T14:54:14.156Z,1.35
2022-08-29T14:56:50.615Z,1.17
2022-08-29T14:59:22.487Z,1.60
2022-08-29T15:01:54.373Z,1.33
2022-08-29T15:04:35.637Z,1.50
2022-08-29T15:07:08.312Z,1.33
2022-08-29T15:09:35.515Z,1.38
2022-08-29T15:12:03.003Z,1.33
2022-08-29T15:14:29.980Z,1.73
2022-08-29T15:16:56.727Z,1.30
2022-08-29T15:22:11.616Z,1.63
2022-08-29T15:24:39.219Z,1.42
2022-08-29T15:27:06.621Z,1.15
2022-08-29T15:29:34.103Z,1.13
2022-08-29T15:32:01.171Z,1.30
2022-08-29T15:34:28.572Z,1.05
2022-08-29T15:36:56.735Z,1.33
2022-08-29T15:39:28.050Z,1.40
2022-08-29T15:41:56.566Z,1.42
2022-08-29T15:44:24.109Z,1.60
2022-08-29T15:46:52.231Z,1.38
2022-08-29T15:49:22.065Z,1.30
2022-08-29T15:51:52.759Z,1.10
2022-08-29T15:54:20.839Z,1.35
2022-08-29T15:56:48.059Z,0.98
2022-08-29T15:59:16.774Z,1.55
2022-08-29T16:01:47.308Z,1.40
2022-08-29T16:04:17.262Z,1.42
2022-08-29T16:06:44.139Z,1.50
2022-08-29T16:09:15.091Z,1.25
2022-08-29T16:11:44.149Z,1.30
2022-08-29T16:16:58.857Z,1.02
2022-08-29T16:19:25.677Z,1.35
2022-08-29T16:21:52.899Z,1.40
2022-08-29T16:24:21.874Z,1.60
2022-08-29T16:26:48.764Z,1.40
2022-08-29T16:29:16.481Z,1.88
2022-08-29T16:31:54.044Z,1.20
2022-08-29T16:34:22.838Z,1.52
2022-08-29T16:36:49.687Z,1.63
2022-08-29T16:39:16.446Z,1.63
2022-08-29T16:41:45.252Z,2.10
2022-08-29T16:44:12.084Z,1.48
2022-08-29T16:46:38.873Z,2.13
2022-08-29T16:49:06.042Z,1.80
2022-08-29T16:51:32.885Z,1.98
2022-08-29T16:54:00.150Z,1.60
2022-08-29T16:56:27.311Z,1.60
2022-08-29T16:59:01.537Z,1.58
2022-08-29T17:01:35.235Z,1.60
2022-08-29T17:04:04.429Z,1.48
2022-08-29T17:06:32.861Z,1.80
2022-08-29T17:09:00.202Z,1.60
2022-08-29T17:11:28.293Z,1.98
2022-08-29T17:13:55.744Z,1.80
2022-08-29T17:16:23.256Z,1.80
2022-08-29T17:18:50.599Z,1.63
2022-08-29T17:21:17.808Z,1.92
2022-08-29T17:23:45.466Z,1.73
2022-08-29T17:26:16.502Z,1.88
2022-08-29T17:28:45.852Z,1.52
2022-08-29T17:31:13.286Z,1.60
2022-08-29T17:33:40.694Z,1.35
2022-08-29T17:36:09.447Z,1.33
2022-08-29T17:38:38.883Z,1.57
2022-08-29T17:41:14.671Z,2.30
2022-08-29T17:43:42.614Z,1.80
2022-08-29T17:46:09.724Z,1.45
2022-08-29T17:48:36.818Z,1.70
2022-08-29T17:51:04.298Z,1.40
2022-08-29T17:53:32.523Z,1.67
2022-08-29T17:56:11.390Z,1.75
2022-08-29T17:58:39.980Z,2.10
2022-08-29T18:01:13.622Z,1.60
2022-08-29T18:03:44.417Z,1.88
2022-08-29T18:06:14.887Z,1.98
2022-08-29T18:08:47.906Z,2.33
2022-08-29T18:11:17.068Z,2.42
2022-08-29T18:13:44.501Z,2.28
2022-08-29T18:16:12.107Z,2.30
2022-08-29T18:18:39.319Z,2.43
2022-08-29T18:21:06.433Z,2.33
2022-08-29T18:23:33.520Z,2.40
2022-08-29T18:26:01.273Z,2.65
2022-08-29T18:28:28.374Z,2.30
2022-08-29T18:30:55.562Z,2.50
2022-08-29T18:33:22.474Z,2.43
2022-08-29T18:35:49.264Z,2.30
2022-08-29T18:38:16.395Z,2.50
2022-08-29T18:40:44.032Z,2.77
2022-08-29T18:43:13.330Z,2.47
2022-08-29T18:45:41.203Z,2.57
2022-08-29T18:48:08.846Z,3.07
2022-08-29T18:50:36.489Z,2.90
2022-08-29T18:53:08.220Z,3.10
2022-08-29T18:55:35.656Z,2.80
2022-08-29T18:58:04.068Z,2.90
2022-08-29T19:00:31.546Z,3.33
2022-08-29T19:03:01.150Z,2.80
2022-08-29T19:05:31.092Z,2.47
2022-08-29T19:07:58.466Z,2.60
2022-08-29T19:10:28.270Z,2.60
2022-08-29T19:12:56.928Z,2.70
2022-08-29T19:15:25.941Z,2.87
2022-08-29T19:17:53.549Z,2.87
2022-08-29T19:20:42.685Z,2.70
2022-08-29T19:23:10.463Z,3.07
2022-08-29T19:25:38.389Z,2.97
2022-08-29T19:28:06.289Z,3.30
2022-08-29T19:30:34.119Z,3.17
2022-08-29T19:33:01.087Z,3.40
2022-08-29T19:35:27.987Z,3.13
2022-08-29T19:37:54.876Z,3.93
2022-08-29T19:40:22.975Z,3.70
2022-08-29T19:42:49.940Z,3.80
2022-08-29T19:45:19.156Z,3.80
2022-08-29T19:47:46.123Z,3.73
2022-08-29T19:50:14.501Z,3.47
2022-08-29T19:52:41.837Z,3.47
2022-08-29T19:55:12.893Z,3.23
2022-08-29T19:57:41.510Z,3.40
2022-08-29T20:00:14.030Z,3.50
2022-08-29T20:02:42.405Z,3.60
2022-08-29T20:05:13.843Z,3.30
2022-08-29T20:07:41.949Z,3.30
2022-08-29T20:10:10.878Z,3.53
2022-08-29T20:12:37.675Z,3.60
2022-08-29T20:15:06.975Z,3.60
2022-08-29T20:17:39.217Z,3.50
2022-08-29T20:20:13.048Z,3.60
2022-08-29T20:22:39.896Z,3.70
2022-08-29T20:25:10.714Z,3.20
2022-08-29T20:27:38.394Z,2.77
2022-08-29T20:30:09.027Z,3.20
2022-08-29T20:32:36.078Z,3.23
2022-08-29T20:35:04.380Z,2.90
2022-08-29T20:37:31.152Z,3.50
2022-08-29T20:39:58.704Z,2.87
2022-08-29T20:42:26.140Z,2.60
2022-08-29T20:44:56.561Z,3.00
2022-08-29T20:47:24.255Z,2.67
2022-08-29T20:49:55.885Z,2.57
2022-08-29T20:52:24.323Z,2.97
2022-08-29T20:54:51.812Z,2.97
2022-08-29T20:57:18.878Z,2.80
2022-08-29T20:59:46.361Z,2.67
2022-08-29T21:02:14.021Z,2.67
2022-08-29T21:04:59.631Z,2.83
2022-08-29T21:07:26.493Z,2.80
2022-08-29T21:09:54.790Z,2.60
2022-08-29T21:12:22.307Z,2.67
2022-08-29T21:14:54.357Z,2.50
2022-08-29T21:17:21.210Z,2.40
2022-08-29T21:19:48.155Z,2.90
2022-08-29T21:22:15.622Z,3.17
2022-08-29T21:24:42.464Z,2.50
2022-08-29T21:27:10.598Z,3.10
2022-08-29T21:29:37.462Z,2.37
2022-08-29T21:32:04.877Z,2.60
2022-08-29T21:34:31.826Z,2.80
2022-08-29T21:36:58.582Z,2.60
2022-08-29T21:39:28.873Z,2.20
2022-08-29T21:41:57.587Z,2.00
2022-08-29T21:44:24.370Z,2.30
2022-08-29T21:46:51.317Z,2.60
2022-08-29T21:49:21.504Z,2.63
2022-08-29T21:51:49.144Z,2.43
2022-08-29T21:54:17.339Z,2.80
2022-08-29T21:56:45.408Z,2.80
2022-08-29T21:59:14.032Z,2.30
2022-08-29T22:01:41.737Z,2.57
2022-08-29T22:04:19.143Z,2.63
2022-08-29T22:06:54.804Z,2.57
2022-08-29T22:09:21.732Z,2.27
2022-08-29T22:11:49.003Z,2.20
2022-08-29T22:14:15.768Z,2.23
2022-08-29T22:16:43.023Z,2.60
2022-08-29T22:19:12.972Z,2.10
2022-08-29T22:21:42.677Z,2.13
2022-08-29T22:24:10.583Z,1.87
2022-08-29T22:26:39.353Z,1.67
2022-08-29T22:29:08.298Z,1.70
2022-08-29T22:31:40.454Z,1.70
2022-08-29T22:34:17.241Z,1.80
2022-08-29T22:36:45.633Z,1.80
2022-08-29T22:39:12.609Z,1.80
2022-08-29T22:41:44.210Z,1.80
2022-08-29T22:47:01.508Z,1.70
2022-08-29T22:49:33.244Z,1.80
2022-08-29T22:52:00.754Z,2.00
2022-08-29T22:54:36.474Z,2.00
2022-08-29T22:57:10.090Z,1.60
2022-08-29T22:59:37.817Z,1.53
2022-08-29T23:02:05.799Z,1.53
2022-08-29T23:04:32.630Z,1.97
2022-08-29T23:07:00.780Z,1.63
2022-08-29T23:09:33.533Z,1.50
2022-08-29T23:12:05.624Z,1.20
2022-08-29T23:14:34.827Z,1.47
2022-08-29T23:17:02.566Z,1.40
2022-08-29T23:19:29.365Z,1.53
2022-08-29T23:21:57.904Z,1.30
2022-08-29T23:24:26.263Z,1.50
2022-08-29T23:26:53.177Z,1.60
2022-08-29T23:29:20.766Z,1.70
2022-08-29T23:31:47.546Z,1.10
2022-08-29T23:34:14.637Z,1.30
2022-08-29T23:36:41.478Z,1.33
2022-08-29T23:39:08.432Z,1.20
2022-08-29T23:41:36.152Z,1.53
2022-08-29T23:44:03.524Z,1.30
2022-08-29T23:46:30.358Z,1.63
2022-08-29T23:48:57.877Z,1.50
2022-08-29T23:51:24.653Z,1.60
2022-08-29T23:53:51.450Z,1.53
2022-08-29T23:56:21.114Z,1.63
2022-08-29T23:58:48.286Z,1.40
